Time;durP1;ratioP1;P1;durP2;ratioP2;P2;SDS_P1;SDS_P2;PMS_P1;PMS_P2;Temp;Humidity;BMP_temperature;BMP_pressure;BME280_temperature;BME280_humidity;BME280_pressure;Samples;Min_cycle;Max_cycle;Signal;HPM_P1;HPM_P2
2024/03/17 00:00:14;;;;;;;;;68.33;56.33;;;;;8.23;100.00;99710.97;6303252;20;2872263;-40
2024/03/17 00:02:43;;;;;;;;;70.33;55.00;;;;;8.24;100.00;99709.16;6305663;20;3616981;-42
2024/03/17 00:05:11;;;;;;;;;73.00;56.67;;;;;8.31;100.00;99715.91;6300736;20;3645068;-41
2024/03/17 00:07:40;;;;;;;;;74.00;59.00;;;;;8.03;100.00;99712.00;6305938;20;3634669;-41
2024/03/17 00:10:10;;;;;;;;;71.33;56.33;;;;;8.30;100.00;99714.19;6304967;20;2865003;-41
2024/03/17 00:12:39;;;;;;;;;75.33;63.00;;;;;8.05;100.00;99710.09;6305672;20;3651431;-41
2024/03/17 00:15:08;;;;;;;;;73.00;55.33;;;;;8.05;100.00;99714.56;6303058;20;3640898;-42
2024/03/17 00:17:36;;;;;;;;;67.33;55.00;;;;;8.28;100.00;99711.59;6305354;20;3612784;-41
2024/03/17 00:20:18;;;;;;;;;73.00;57.33;;;;;8.67;100.00;99714.97;6305395;20;3624187;-41
2024/03/17 00:22:51;;;;;;;;;67.67;53.33;;;;;9.25;100.00;99709.13;6303566;20;2868078;-48
2024/03/17 00:25:19;;;;;;;;;65.33;53.33;;;;;9.42;100.00;99711.69;6303792;20;3622152;-46
2024/03/17 00:27:48;;;;;;;;;70.00;55.33;;;;;9.56;100.00;99723.47;6307804;20;3604429;-46
2024/03/17 00:30:16;;;;;;;;;65.67;52.67;;;;;9.69;100.00;99713.78;6271157;20;2863905;-46
2024/03/17 00:32:44;;;;;;;;;68.33;52.00;;;;;9.71;100.00;99724.41;6303823;20;3641933;-47
2024/03/17 00:35:20;;;;;;;;;64.00;51.00;;;;;9.86;100.00;99728.88;6303745;20;3619087;-46
2024/03/17 00:37:49;;;;;;;;;63.00;50.67;;;;;9.70;100.00;99725.38;6304231;20;3611729;-48
2024/03/17 00:40:19;;;;;;;;;56.00;45.33;;;;;9.84;100.00;99734.31;6304644;20;2862045;-47
2024/03/17 00:42:48;;;;;;;;;60.33;48.33;;;;;9.86;100.00;99740.47;6303680;20;2867145;-46
2024/03/17 00:45:17;;;;;;;;;55.33;45.67;;;;;9.94;100.00;99733.81;6302506;20;2861795;-47
2024/03/17 00:47:45;;;;;;;;;57.00;46.00;;;;;10.14;100.00;99730.81;6304271;20;2863861;-48
2024/03/17 00:50:13;;;;;;;;;44.67;35.67;;;;;10.16;100.00;99734.25;6302491;20;2856547;-47
2024/03/17 00:52:42;;;;;;;;;53.67;44.00;;;;;10.15;100.00;99732.53;6305414;20;3615990;-48
2024/03/17 00:55:10;;;;;;;;;50.33;43.00;;;;;10.28;100.00;99732.72;6301938;20;2859704;-46
2024/03/17 00:57:38;;;;;;;;;47.00;39.00;;;;;10.31;100.00;99735.22;6303541;20;2841049;-47
2024/03/17 01:00:10;;;;;;;;;51.00;42.00;;;;;10.21;100.00;99732.16;6273107;20;2850422;-47
2024/03/17 01:02:39;;;;;;;;;51.00;42.50;;;;;10.20;100.00;99727.75;6273725;20;2859682;-48
2024/03/17 01:05:07;;;;;;;;;49.00;41.00;;;;;10.08;100.00;99733.84;6270255;20;2845196;-50
2024/03/17 01:07:37;;;;;;;;;48.67;39.00;;;;;10.00;100.00;99731.59;6274688;20;2866031;-45
2024/03/17 01:10:07;;;;;;;;;42.00;37.00;;;;;9.98;100.00;99728.19;6309142;20;2854455;-47
2024/03/17 01:12:36;;;;;;;;;48.33;40.00;;;;;9.92;100.00;99724.97;6278366;20;2853474;-47
2024/03/17 01:15:10;;;;;;;;;46.00;39.67;;;;;9.81;100.00;99718.41;6307908;20;2859875;-46
2024/03/17 01:17:38;;;;;;;;;48.00;39.00;;;;;9.86;100.00;99720.84;6309145;20;2860752;-47
2024/03/17 01:20:07;;;;;;;;;37.50;34.00;;;;;9.89;100.00;99710.78;6307907;20;2845090;-49
2024/03/17 01:22:36;;;;;;;;;45.67;37.00;;;;;9.68;100.00;99712.03;6278313;20;3624178;-46
2024/03/17 01:25:04;;;;;;;;;33.67;31.00;;;;;9.85;100.00;99711.94;6310275;20;3583628;-46
2024/03/17 01:27:32;;;;;;;;;30.33;29.00;;;;;9.84;100.00;99706.66;6279972;20;3610718;-47
2024/03/17 01:30:00;;;;;;;;;24.00;24.00;;;;;9.85;100.00;99711.94;6311327;20;3591903;-45
2024/03/17 01:32:28;;;;;;;;;27.00;27.00;;;;;10.02;100.00;99699.34;6277772;20;2855483;-45
2024/03/17 01:34:55;;;;;;;;;22.33;22.33;;;;;9.87;100.00;99704.66;6310245;20;3581597;-46
2024/03/17 01:37:24;;;;;;;;;27.00;24.00;;;;;9.80;100.00;99708.66;6276900;20;2846192;-45
2024/03/17 01:39:52;;;;;;;;;22.00;22.00;;;;;9.82;100.00;99706.75;6276240;20;2848238;-47
2024/03/17 01:42:18;;;;;;;;;19.00;18.00;;;;;9.78;100.00;99702.50;6274331;20;2500275;-47
2024/03/17 01:44:45;;;;;;;;;21.00;19.00;;;;;9.60;100.00;99704.44;6275116;20;2498232;-48
2024/03/17 01:47:11;;;;;;;;;17.00;16.00;;;;;9.66;100.00;99703.19;6276747;20;2492087;-47
2024/03/17 01:49:38;;;;;;;;;14.00;14.00;;;;;9.76;100.00;99704.41;6281206;20;2805507;-46
2024/03/17 01:52:06;;;;;;;;;17.00;16.00;;;;;9.64;100.00;99706.00;6276622;20;3550235;-49
2024/03/17 01:54:33;;;;;;;;;18.50;17.00;;;;;9.36;100.00;99704.00;6277716;20;2824646;-49
2024/03/17 01:57:00;;;;;;;;;16.00;16.00;;;;;9.24;100.00;99707.38;6277110;20;3544054;-47
2024/03/17 01:59:28;;;;;;;;;19.50;19.50;;;;;9.21;100.00;99702.19;6277759;20;2831579;-46
2024/03/17 02:01:56;;;;;;;;;19.50;17.50;;;;;9.54;100.00;99703.94;6277765;20;2834626;-45
2024/03/17 02:04:22;;;;;;;;;17.00;14.50;;;;;9.72;100.00;99707.38;6276366;20;2496281;-45
2024/03/17 02:06:49;;;;;;;;;14.50;12.50;;;;;9.75;100.00;99713.41;6276365;20;2788872;-45
2024/03/17 02:09:18;;;;;;;;;16.00;16.00;;;;;9.74;100.00;99710.81;6278249;20;3569022;-45
2024/03/17 02:11:46;;;;;;;;;18.00;15.00;;;;;9.81;100.00;99717.56;6275453;20;3546077;-47
2024/03/17 02:14:14;;;;;;;;;15.50;15.50;;;;;9.66;100.00;99716.59;6278346;20;2813893;-45
2024/03/17 02:16:41;;;;;;;;;16.50;15.50;;;;;9.75;100.00;99716.09;6278871;20;2811746;-48
2024/03/17 02:19:08;;;;;;;;;15.00;15.00;;;;;9.76;100.00;99723.16;6280676;20;2810689;-46
2024/03/17 02:21:37;;;;;;;;;15.33;15.00;;;;;9.63;100.00;99719.47;6276992;20;3548294;-48
2024/03/17 02:24:05;;;;;;;;;16.67;15.00;;;;;9.62;100.00;99717.75;6307207;20;3545177;-47
2024/03/17 02:26:32;;;;;;;;;12.67;12.00;;;;;9.54;100.00;99714.66;6276101;20;3518044;-48
2024/03/17 02:29:00;;;;;;;;;11.33;11.33;;;;;9.72;100.00;99718.97;6305595;20;2792252;-45
2024/03/17 02:31:29;;;;;;;;;12.20;12.00;;;;;9.67;100.00;99721.03;6331160;20;2788821;-45
2024/03/17 02:33:59;;;;;;;;;8.71;8.71;;;;;9.30;100.00;99712.41;6322879;20;1809745;-45
2024/03/17 02:36:27;;;;;;;;;12.00;11.00;;;;;9.22;100.00;99720.00;6331646;20;2796619;-46
2024/03/17 02:41:45;;;;;;;;;9.40;9.00;;;;;9.33;100.00;99722.09;6302135;20;2737829;-45
2024/03/17 02:44:13;;;;;;;;;11.00;11.00;;;;;9.34;100.00;99730.03;6306868;20;2794183;-46
2024/03/17 02:46:39;;;;;;;;;10.00;10.00;;;;;9.15;100.00;99727.50;6306997;20;2780470;-45
2024/03/17 02:49:08;;;;;;;;;10.00;10.00;;;;;9.30;100.00;99732.97;6276159;20;2793989;-45
2024/03/17 02:51:35;;;;;;;;;11.00;9.50;;;;;9.28;100.00;99741.09;6276204;20;2779445;-44
2024/03/17 02:54:01;;;;;;;;;10.00;8.00;;;;;9.42;100.00;99743.00;6276654;20;2768171;-48
2024/03/17 02:56:30;;;;;;;;;9.40;9.40;;;;;9.43;100.00;99739.38;6302155;20;2739861;-45
2024/03/17 02:58:58;;;;;;;;;11.60;9.20;;;;;9.37;100.00;99737.03;6299408;20;2786794;-46
2024/03/17 03:01:25;;;;;;;;;11.00;10.00;;;;;9.41;100.00;99734.09;6275487;20;2786747;-45
2024/03/17 03:03:54;;;;;;;;;10.00;10.00;;;;;9.52;100.00;99744.22;6275895;20;2792003;-45
2024/03/17 03:06:21;;;;;;;;;9.50;9.50;;;;;9.53;100.00;99739.69;6278625;20;2769152;-44
2024/03/17 03:08:50;;;;;;;;;9.50;8.00;;;;;9.60;100.00;99735.72;6276530;20;2762813;-48
2024/03/17 03:11:18;;;;;;;;;9.00;8.50;;;;;9.55;100.00;99735.97;6277549;20;2762838;-45
2024/03/17 03:13:45;;;;;;;;;9.50;8.00;;;;;9.73;100.00;99739.44;6277800;20;2752393;-45
2024/03/17 03:16:15;;;;;;;;;9.29;9.00;;;;;9.81;100.00;99739.88;6320762;20;1795679;-45
2024/03/17 03:18:44;;;;;;;;;14.50;12.00;;;;;9.67;100.00;99745.16;6305848;20;2789970;-45
2024/03/17 03:21:12;;;;;;;;;11.00;11.00;;;;;9.72;100.00;99751.13;6276869;20;2791935;-46
2024/03/17 03:23:41;;;;;;;;;11.20;11.20;;;;;9.78;100.00;99748.09;6301477;20;2795108;-44
2024/03/17 03:26:09;;;;;;;;;10.00;10.00;;;;;9.53;100.00;99750.44;6275088;20;2794062;-44
2024/03/17 03:28:36;;;;;;;;;12.50;12.50;;;;;9.62;100.00;99734.69;6275688;20;2794042;-48
2024/03/17 03:31:05;;;;;;;;;10.80;9.60;;;;;9.37;100.00;99735.22;6297006;20;2776348;-47
2024/03/17 03:33:32;;;;;;;;;9.00;9.00;;;;;9.49;100.00;99733.66;6279912;20;2743029;-47
2024/03/17 03:36:12;;;;;;;;;13.00;10.60;;;;;9.32;100.00;99731.94;6299673;20;2789824;-44
2024/03/17 03:38:39;;;;;;;;;9.00;6.00;;;;;9.01;100.00;99741.66;6278953;20;2728408;-45
2024/03/17 03:41:12;;;;;;;;;8.00;8.00;;;;;9.17;100.00;99727.44;6305595;20;2741927;-45
2024/03/17 03:43:38;;;;;;;;;12.50;12.00;;;;;9.27;100.00;99734.00;6275775;20;2786728;-48
2024/03/17 03:46:08;;;;;;;;;10.67;10.67;;;;;9.39;100.00;99733.31;6274738;20;2796215;-45
2024/03/17 03:48:36;;;;;;;;;9.40;9.40;;;;;9.40;100.00;99734.16;6333046;20;2781591;-44
2024/03/17 03:51:07;;;;;;;;;9.00;9.00;;;;;9.51;100.00;99742.50;6272877;20;2760750;-45
2024/03/17 03:53:38;;;;;;;;;9.14;9.00;;;;;9.54;100.00;99752.19;6316793;20;1805581;-46
2024/03/17 03:56:06;;;;;;;;;9.50;9.50;;;;;9.54;100.00;99749.50;6305986;20;2769486;-45
2024/03/17 03:58:35;;;;;;;;;8.00;8.00;;;;;9.71;100.00;99756.56;6276388;20;2754627;-46
2024/03/17 04:01:11;;;;;;;;;9.50;9.00;;;;;9.72;100.00;99753.81;6274371;20;2757084;-48
2024/03/17 04:03:38;;;;;;;;;11.00;8.00;;;;;9.63;100.00;99751.63;6276591;20;2764911;-45
2024/03/17 04:06:11;;;;;;;;;9.00;9.00;;;;;9.79;100.00;99752.47;6279196;20;2750308;-45
2024/03/17 04:08:42;;;;;;;;;8.50;8.50;;;;;9.80;100.00;99764.09;6275888;20;2748226;-44
2024/03/17 04:11:09;;;;;;;;;7.50;7.50;;;;;9.84;100.00;99761.13;6278108;20;2744196;-46
2024/03/17 04:13:36;;;;;;;;;7.00;7.00;;;;;9.86;100.00;99763.75;6276276;20;2730498;-44
2024/03/17 04:16:07;;;;;;;;;7.00;7.00;;;;;9.93;100.00;99773.16;6278501;20;2746157;-46
2024/03/17 04:18:34;;;;;;;;;7.00;7.00;;;;;9.86;100.00;99767.28;6276723;20;2737887;-45
2024/03/17 04:21:06;;;;;;;;;7.00;7.00;;;;;9.73;100.00;99779.66;6275009;20;2746234;-46
2024/03/17 04:23:33;;;;;;;;;7.00;7.00;;;;;9.80;100.00;99775.69;6276741;20;2744034;-46
2024/03/17 04:26:03;;;;;;;;;6.00;6.00;;;;;9.51;100.00;99782.69;6274529;20;2739926;-44
2024/03/17 04:28:32;;;;;;;;;7.83;7.00;;;;;9.63;100.00;99786.50;6318142;20;1794926;-48
2024/03/17 04:31:06;;;;;;;;;11.00;9.00;;;;;9.43;100.00;99788.47;6275680;20;2775282;-46
2024/03/17 04:33:34;;;;;;;;;8.50;7.75;;;;;9.37;100.00;99788.81;6295789;20;1809180;-48
2024/03/17 04:36:04;;;;;;;;;8.00;8.00;;;;;9.31;100.00;99783.78;6307055;20;2746081;-44
2024/03/17 04:38:30;;;;;;;;;7.00;7.00;;;;;9.41;100.00;99793.03;6276717;20;2741955;-49
2024/03/17 04:41:04;;;;;;;;;7.50;7.50;;;;;9.37;100.00;99804.00;6288488;20;1805631;-44
2024/03/17 04:43:32;;;;;;;;;8.00;5.50;;;;;9.34;100.00;99794.31;6308382;20;2738812;-44
2024/03/17 04:46:05;;;;;;;;;8.00;6.00;;;;;9.32;100.00;99790.88;6307300;20;2735711;-47
2024/03/17 04:48:32;;;;;;;;;7.00;7.00;;;;;9.37;100.00;99793.28;6308247;20;2736882;-46
2024/03/17 04:51:00;;;;;;;;;8.00;7.00;;;;;9.34;100.00;99788.97;6277025;20;2740902;-43
2024/03/17 04:53:27;;;;;;;;;10.00;8.00;;;;;9.31;100.00;99783.78;6274093;20;2763827;-47
2024/03/17 04:56:06;;;;;;;;;10.00;7.50;;;;;9.26;100.00;99780.47;6273318;20;2746223;-44
2024/03/17 04:58:35;;;;;;;;;8.20;7.80;;;;;9.28;100.00;99789.31;6300055;20;2740940;-45
2024/03/17 05:01:08;;;;;;;;;7.50;7.50;;;;;8.99;100.00;99785.53;6315269;20;2737820;-47
2024/03/17 05:03:37;;;;;;;;;8.33;8.17;;;;;9.10;100.00;99784.94;6348380;20;1794096;-44
2024/03/17 05:06:05;;;;;;;;;9.00;9.00;;;;;8.92;100.00;99787.66;6281953;20;2748241;-46
2024/03/17 05:08:36;;;;;;;;;9.00;9.00;;;;;9.20;100.00;99788.88;6306459;20;2744159;-46
2024/03/17 05:11:05;;;;;;;;;8.00;8.00;;;;;9.04;100.00;99790.66;6274961;20;2735747;-46
2024/03/17 05:13:39;;;;;;;;;10.00;10.00;;;;;8.88;100.00;99786.09;6304440;20;2781583;-47
2024/03/17 05:16:06;;;;;;;;;12.00;10.00;;;;;8.91;100.00;99793.13;6274695;20;2791911;-46
2024/03/17 05:18:33;;;;;;;;;9.00;9.00;;;;;9.00;100.00;99797.97;6274706;20;2737851;-47
2024/03/17 05:21:04;;;;;;;;;10.00;10.00;;;;;9.13;100.00;99798.19;6271845;20;2772130;-46
2024/03/17 05:23:37;;;;;;;;;9.80;8.60;;;;;8.92;100.00;99802.84;6299709;20;2764874;-44
2024/03/17 05:26:04;;;;;;;;;9.00;9.00;;;;;8.86;100.00;99804.06;6273867;20;2742010;-48
2024/03/17 05:28:33;;;;;;;;;11.80;10.40;;;;;8.94;100.00;99807.19;6296595;20;2794138;-46
2024/03/17 05:31:00;;;;;;;;;9.00;9.00;;;;;9.10;100.00;99806.38;6273860;20;2742004;-44
2024/03/17 05:33:27;;;;;;;;;10.00;10.00;;;;;9.29;100.00;99807.09;6271675;20;2781529;-45
2024/03/17 05:36:00;;;;;;;;;6.00;6.00;;;;;9.19;100.00;99806.75;6276741;20;2739900;-45
2024/03/17 05:38:28;;;;;;;;;8.50;7.00;;;;;9.33;100.00;99802.47;6306434;20;2752373;-44
2024/03/17 05:41:06;;;;;;;;;12.00;9.00;;;;;9.45;100.00;99805.34;6270793;20;2770091;-47
2024/03/17 05:43:37;;;;;;;;;12.00;11.00;;;;;9.54;100.00;99808.47;6274148;20;2791948;-45
2024/03/17 05:46:08;;;;;;;;;8.00;8.00;;;;;9.24;100.00;99803.81;6305958;20;2731595;-46
2024/03/17 05:48:38;;;;;;;;;10.00;10.00;;;;;9.43;100.00;99809.91;6271964;20;2789870;-45
2024/03/17 05:51:11;;;;;;;;;9.25;7.25;;;;;9.36;100.00;99821.91;6291335;20;1800350;-46
2024/03/17 05:53:45;;;;;;;;;9.50;9.00;;;;;9.16;100.00;99816.75;6305530;20;2752404;-52
2024/03/17 05:56:15;;;;;;;;;8.60;8.60;;;;;9.10;100.00;99822.44;6303759;20;2739991;-51
2024/03/17 05:58:42;;;;;;;;;8.50;8.50;;;;;9.48;99.11;99817.72;6309333;20;2746184;-46
2024/03/17 06:01:11;;;;;;;;;9.20;8.80;;;;;9.75;94.92;99823.34;6304601;20;2770187;-45
2024/03/17 06:03:38;;;;;;;;;8.00;8.00;;;;;10.16;92.70;99825.47;6276625;20;2754450;-46
2024/03/17 06:06:10;;;;;;;;;13.00;13.00;;;;;10.88;86.34;99817.72;6277226;20;3477323;-46
2024/03/17 06:08:38;;;;;;;;;15.00;15.00;;;;;12.28;78.30;99813.28;6311458;20;2791947;-46
2024/03/17 06:11:06;;;;;;;;;16.00;16.00;;;;;12.55;75.51;99824.97;6275884;20;2496216;-46
2024/03/17 06:13:33;;;;;;;;;15.00;15.00;;;;;13.60;67.92;99835.66;6277244;20;2500495;-47
2024/03/17 06:16:02;;;;;;;;;19.00;16.00;;;;;11.62;77.88;99833.66;6277082;20;2500343;-45
2024/03/17 06:18:29;;;;;;;;;17.00;16.00;;;;;11.05;81.08;99841.72;6274905;20;2500270;-45
2024/03/17 06:20:59;;;;;;;;;16.33;16.33;;;;;12.68;74.02;99844.72;6277278;20;3558697;-51
2024/03/17 06:23:27;;;;;;;;;17.00;17.00;;;;;10.81;83.64;99845.91;6277192;20;3567354;-46
2024/03/17 06:25:55;;;;;;;;;20.00;17.67;;;;;10.58;87.88;99836.50;6276607;20;3574285;-44
2024/03/17 06:28:22;;;;;;;;;16.00;16.00;;;;;10.71;87.25;99837.50;6275732;20;2496203;-46
2024/03/17 06:30:59;;;;;;;;;14.50;14.50;;;;;10.38;87.96;99829.66;6278435;20;2810771;-44
2024/03/17 06:33:28;;;;;;;;;12.00;12.00;;;;;10.82;86.77;99823.44;6278754;20;2811855;-45
2024/03/17 06:35:56;;;;;;;;;16.33;15.00;;;;;9.94;87.61;99814.25;6276699;20;3547385;-45
2024/03/17 06:38:23;;;;;;;;;14.00;14.00;;;;;10.40;87.88;99819.66;6309563;20;2803481;-47
2024/03/17 06:40:52;;;;;;;;;14.33;14.00;;;;;10.41;86.51;99819.59;6276893;20;2800353;-45
2024/03/17 06:43:20;;;;;;;;;14.00;14.00;;;;;10.70;85.80;99827.75;6309122;20;2800467;-45
2024/03/17 06:46:00;;;;;;;;;14.67;14.67;;;;;10.64;83.69;99826.28;6273278;20;3531496;-46
2024/03/17 06:48:28;;;;;;;;;14.50;12.00;;;;;10.77;81.08;99821.91;6308643;20;2797150;-46
2024/03/17 06:50:55;;;;;;;;;14.50;13.00;;;;;11.00;82.36;99825.00;6282394;20;2793040;-47
2024/03/17 06:53:24;;;;;;;;;9.00;9.00;;;;;10.59;80.21;99816.78;6277948;20;2738872;-43
2024/03/17 06:55:57;;;;;;;;;10.00;10.00;;;;;11.03;79.15;99821.28;6276467;20;2792050;-45
2024/03/17 06:58:27;;;;;;;;;7.00;5.40;;;;;11.08;77.04;99820.03;6333374;20;2746345;-44
2024/03/17 07:01:00;;;;;;;;;11.00;8.00;;;;;10.88;78.19;99809.66;6314114;20;2649330;-45
2024/03/17 07:03:30;;;;;;;;;9.50;9.50;;;;;11.21;77.04;99836.25;6275430;20;2769226;-44
2024/03/17 07:06:02;;;;;;;;;6.00;6.00;;;;;10.73;77.92;99830.25;6280477;20;2739888;-49
2024/03/17 07:08:31;;;;;;;;;6.00;4.40;;;;;11.07;76.67;99831.75;6300919;20;2749204;-45
2024/03/17 07:11:07;;;;;;;;;6.00;6.00;;;;;11.23;77.01;99849.63;6326418;20;1810862;-49
2024/03/17 07:13:41;;;;;;;;;6.00;6.00;;;;;11.17;75.55;99850.88;6348525;20;1791994;-47
2024/03/17 07:16:09;;;;;;;;;6.00;6.00;;;;;11.69;72.88;99844.03;6300999;20;2725389;-48
2024/03/17 07:18:36;;;;;;;;;5.00;5.00;;;;;11.74;72.01;99840.13;6275116;20;2746161;-44
2024/03/17 07:21:05;;;;;;;;;4.75;4.75;;;;;11.55;72.36;99855.66;6294664;20;1809726;-44
2024/03/17 07:23:32;;;;;;;;;4.00;4.00;;;;;11.69;73.17;99855.69;6310329;20;2746114;-46
2024/03/17 07:26:02;;;;;;;;;5.00;5.00;;;;;11.58;74.75;99840.19;6277815;20;2743000;-44
2024/03/17 07:28:28;;;;;;;;;4.00;4.00;;;;;11.43;75.02;99850.09;6278122;20;2754454;-49
2024/03/17 07:30:58;;;;;;;;;4.00;4.00;;;;;11.73;73.75;99846.44;6279370;20;2746135;-48
2024/03/17 07:33:27;;;;;;;;;4.40;4.40;;;;;11.91;71.93;99846.25;6301562;20;2754538;-45
2024/03/17 07:36:00;;;;;;;;;4.00;4.00;;;;;12.42;70.30;99849.19;6310536;20;2747259;-50
2024/03/17 07:38:30;;;;;;;;;4.00;3.00;;;;;12.27;70.03;99843.88;6280720;20;2739938;-46
2024/03/17 07:41:04;;;;;;;;;4.00;4.00;;;;;12.27;71.05;99851.09;6279062;20;2754488;-48
2024/03/17 07:43:39;;;;;;;;;4.00;4.00;;;;;12.65;68.21;99858.41;6279194;20;2750290;-47
2024/03/17 07:46:11;;;;;;;;;3.00;3.00;;;;;12.27;70.01;99864.53;6281222;20;2746145;-45
2024/03/17 07:48:40;;;;;;;;;5.50;5.50;;;;;12.65;69.42;99859.28;6277969;20;2741972;-48
2024/03/17 07:51:17;;;;;;;;;3.67;3.67;;;;;12.53;68.96;99860.09;6299960;20;1924262;-47
2024/03/17 07:53:47;;;;;;;;;6.50;6.50;;;;;12.45;68.86;99874.09;6276583;20;2737821;-44
2024/03/17 07:56:16;;;;;;;;;3.00;3.00;;;;;12.49;66.96;99881.00;6294124;20;1788866;-49
2024/03/17 07:58:47;;;;;;;;;7.80;5.80;;;;;13.15;65.74;99889.13;6334003;20;2748235;-44
2024/03/17 08:01:15;;;;;;;;;3.00;3.00;;;;;12.50;66.39;99880.00;6309836;20;2749283;-48
2024/03/17 08:03:55;;;;;;;;;4.00;4.00;;;;;13.05;64.43;99882.66;6277346;20;2756642;-46
2024/03/17 08:06:22;;;;;;;;;2.00;2.00;;;;;12.83;64.09;99878.72;6279438;20;2753591;-45
2024/03/17 08:08:49;;;;;;;;;2.00;2.00;;;;;13.24;64.87;99877.69;6278570;20;2752381;-48
2024/03/17 08:11:15;;;;;;;;;4.00;4.00;;;;;13.62;63.13;99874.19;6279997;20;2735707;-47
2024/03/17 08:13:43;;;;;;;;;4.00;4.00;;;;;13.17;62.23;99879.13;6273913;20;2754480;-45
2024/03/17 08:16:10;;;;;;;;;2.50;2.50;;;;;12.79;62.79;99871.81;6280377;20;2736746;-44
2024/03/17 08:18:38;;;;;;;;;3.50;3.50;;;;;13.30;62.35;99877.31;6291809;20;1804697;-46
2024/03/17 08:21:06;;;;;;;;;2.50;2.50;;;;;13.07;62.80;99883.41;6311321;20;2723237;-48
2024/03/17 08:23:41;;;;;;;;;11.00;9.40;;;;;12.90;60.39;99879.16;6313649;20;2478887;-45
2024/03/17 08:26:11;;;;;;;;;8.00;7.00;;;;;12.90;58.52;99877.34;6350977;20;3448186;-46
2024/03/17 08:28:38;;;;;;;;;4.00;4.00;;;;;13.03;59.78;99877.34;6307114;20;2751452;-47
2024/03/17 08:31:05;;;;;;;;;3.00;3.00;;;;;12.54;61.17;99877.13;6281505;20;2748242;-49
2024/03/17 08:33:33;;;;;;;;;3.00;3.00;;;;;12.59;61.28;99875.00;6296744;20;2749265;-45
2024/03/17 08:36:08;;;;;;;;;5.50;4.50;;;;;12.63;59.93;99876.50;6309725;20;2747157;-45
2024/03/17 08:38:37;;;;;;;;;4.00;3.00;;;;;12.79;60.01;99882.59;6279843;20;2735839;-49
2024/03/17 08:41:10;;;;;;;;;4.00;3.00;;;;;12.86;58.57;99881.22;6276885;20;2744169;-47
2024/03/17 08:43:38;;;;;;;;;5.50;3.00;;;;;12.76;59.12;99884.63;6277148;20;2739866;-46
2024/03/17 08:46:08;;;;;;;;;2.50;2.00;;;;;12.85;57.66;99890.28;6276874;20;2743073;-48
2024/03/17 08:48:39;;;;;;;;;5.20;3.00;;;;;12.84;58.20;99891.22;6301370;20;2753554;-46
2024/03/17 08:51:08;;;;;;;;;3.00;3.00;;;;;12.55;56.96;99892.31;6309076;20;2751342;-50
2024/03/17 08:53:35;;;;;;;;;7.00;6.00;;;;;12.56;56.16;99903.00;6277264;20;2745119;-48
2024/03/17 08:56:04;;;;;;;;;6.00;4.00;;;;;12.89;57.25;99897.16;6277946;20;2756535;-45
2024/03/17 08:58:31;;;;;;;;;4.00;4.00;;;;;13.09;55.38;99905.75;6278927;20;2750287;-50
2024/03/17 09:00:57;;;;;;;;;6.00;5.00;;;;;12.62;54.59;99912.50;6277293;20;2750417;-51
2024/03/17 09:03:25;;;;;;;;;6.00;3.00;;;;;12.59;55.35;99904.63;6276724;20;2754655;-46
2024/03/17 09:05:55;;;;;;;;;2.00;2.00;;;;;12.86;56.18;99901.91;6321160;20;2468072;-48
2024/03/17 09:08:24;;;;;;;;;3.00;3.00;;;;;12.66;54.86;99903.22;6306774;20;2754464;-47
2024/03/17 09:10:53;;;;;;;;;6.00;6.00;;;;;12.87;56.82;99895.53;6279523;20;2732594;-48
2024/03/17 09:13:26;;;;;;;;;5.00;5.00;;;;;13.09;54.32;99901.22;6275800;20;2745149;-45
2024/03/17 09:16:01;;;;;;;;;4.50;3.00;;;;;12.93;54.06;99901.41;6273244;20;2748222;-50
2024/03/17 09:18:33;;;;;;;;;6.50;6.50;;;;;13.66;53.60;99908.06;6278638;20;2735696;-45
2024/03/17 09:21:07;;;;;;;;;1.00;1.00;;;;;13.21;51.81;99907.56;6280338;20;2731574;-45
2024/03/17 09:23:36;;;;;;;;;6.67;6.67;;;;;13.90;51.29;99913.56;6272133;20;2737596;-47
2024/03/17 09:26:16;;;;;;;;;6.00;5.00;;;;;13.70;51.99;99917.69;6306832;20;2743080;-48
2024/03/17 09:28:44;;;;;;;;;2.00;2.00;;;;;13.30;50.43;99914.22;6296184;20;1802340;-48
2024/03/17 09:31:13;;;;;;;;;4.00;4.00;;;;;13.17;51.55;99919.56;6311915;20;2756637;-46
2024/03/17 09:33:40;;;;;;;;;6.00;6.00;;;;;13.37;50.77;99916.34;6281793;20;2747252;-46
2024/03/17 09:36:11;;;;;;;;;4.00;4.00;;;;;13.34;50.94;99921.97;6283783;20;2754470;-47
2024/03/17 09:38:38;;;;;;;;;3.00;3.00;;;;;13.57;50.90;99917.66;6281783;20;2746198;-49
2024/03/17 09:41:07;;;;;;;;;5.00;2.00;;;;;13.32;49.95;99917.66;6285277;20;2733670;-46
2024/03/17 09:43:35;;;;;;;;;2.50;2.00;;;;;13.51;49.04;99917.25;6282347;20;2744198;-49
2024/03/17 09:46:07;;;;;;;;;2.50;2.50;;;;;13.16;50.23;99926.78;6283020;20;2725301;-48
2024/03/17 09:48:34;;;;;;;;;2.00;2.00;;;;;13.28;50.02;99924.25;6280241;20;2744071;-48
2024/03/17 09:51:03;;;;;;;;;4.00;2.00;;;;;13.24;48.81;99926.22;6280084;20;2744106;-46
2024/03/17 09:53:35;;;;;;;;;4.00;2.00;;;;;13.41;48.85;99921.56;6278744;20;2752476;-47
2024/03/17 09:56:15;;;;;;;;;2.50;2.50;;;;;13.40;49.05;99920.69;6283093;20;2749251;-46
2024/03/17 09:58:47;;;;;;;;;3.00;3.00;;;;;14.03;48.28;99917.09;6280439;20;2742122;-48
2024/03/17 10:01:14;;;;;;;;;45.50;38.00;;;;;13.77;49.58;99916.28;6272590;20;2500876;-47
2024/03/17 10:04:01;;;;;;;;;5.00;4.00;;;;;13.43;47.60;99909.69;6279889;20;2748202;-47
2024/03/17 10:06:27;;;;;;;;;5.00;4.00;;;;;14.25;47.17;99911.00;6282898;20;2747167;-46
2024/03/17 10:09:04;;;;;;;;;5.00;3.00;;;;;13.60;46.90;99912.06;6279992;20;2735871;-46
2024/03/17 10:11:35;;;;;;;;;5.00;3.00;;;;;13.75;48.01;99917.34;6279008;20;2754544;-52
2024/03/17 10:14:04;;;;;;;;;3.50;3.50;;;;;13.89;48.18;99910.97;6280140;20;2748194;-50
2024/03/17 10:16:33;;;;;;;;;5.50;3.50;;;;;13.99;48.15;99891.28;6280304;20;2750699;-48
2024/03/17 10:19:22;;;;;;;;;4.00;2.50;;;;;13.83;47.72;99894.22;6282044;20;2733653;-46
2024/03/17 10:21:58;;;;;;;;;2.00;2.00;;;;;13.58;48.38;99883.47;6282797;20;2744040;-45
2024/03/17 10:24:28;;;;;;;;;1.00;1.00;;;;;14.23;47.06;99894.03;6282759;20;2737922;-46
2024/03/17 10:27:03;;;;;;;;;2.40;2.20;;;;;13.53;47.99;99888.31;6323736;20;2471135;-48
2024/03/17 10:29:39;;;;;;;;;3.50;2.50;;;;;14.10;48.18;99892.34;6313563;20;2738846;-47
2024/03/17 10:32:15;;;;;;;;;5.00;3.00;;;;;14.39;48.19;99898.31;6280216;20;2744233;-48
2024/03/17 10:34:43;;;;;;;;;2.00;2.00;;;;;13.79;48.59;99887.31;6279603;20;2746112;-45
2024/03/17 10:37:22;;;;;;;;;5.00;3.00;;;;;13.72;47.90;99894.16;6281698;20;2746121;-49
2024/03/17 10:39:58;;;;;;;;;4.00;4.00;;;;;14.30;47.18;99898.97;6281347;20;2752349;-47
2024/03/17 10:42:31;;;;;;;;;5.00;3.00;;;;;13.94;48.49;99908.81;6284860;20;2732704;-45
2024/03/17 10:44:58;;;;;;;;;5.00;5.00;;;;;14.27;47.24;99906.34;6280451;20;2742994;-46
2024/03/17 10:47:27;;;;;;;;;6.00;5.00;;;;;14.08;47.53;99910.50;6280797;20;2742025;-45
2024/03/17 10:49:56;;;;;;;;;4.00;3.00;;;;;14.10;47.32;99904.00;6283667;20;2754482;-44
2024/03/17 10:52:28;;;;;;;;;3.00;3.00;;;;;14.08;46.97;99913.19;6281810;20;2741949;-50
2024/03/17 10:54:55;;;;;;;;;3.00;2.00;;;;;14.32;47.00;99899.72;6279558;20;2749286;-45
2024/03/17 10:57:36;;;;;;;;;6.00;4.00;;;;;14.30;46.67;99905.25;6282537;20;2749295;-45
2024/03/17 11:00:08;;;;;;;;;5.00;2.00;;;;;14.38;47.34;99905.56;6283779;20;2752389;-45
2024/03/17 11:02:36;;;;;;;;;4.00;3.00;;;;;14.27;47.06;99900.94;6296332;20;1820844;-47
2024/03/17 11:05:16;;;;;;;;;3.00;3.00;;;;;14.28;46.94;99910.75;6308834;20;2756583;-46
2024/03/17 11:07:46;;;;;;;;;2.00;2.00;;;;;14.89;45.91;99908.06;6281394;20;2739866;-45
2024/03/17 11:10:26;;;;;;;;;5.00;4.00;;;;;14.76;44.02;99901.84;6279791;20;2748202;-44
2024/03/17 11:13:00;;;;;;;;;1.75;1.75;;;;;15.05;44.29;99910.44;6299324;20;1803524;-51
2024/03/17 11:15:29;;;;;;;;;4.50;1.50;;;;;14.80;42.65;99908.75;6306211;20;2747183;-46
2024/03/17 11:18:21;;;;;;;;;2.00;2.00;;;;;14.67;42.29;99902.56;6280400;20;2750436;-46
2024/03/17 11:21:20;;;;;;;;;1.00;1.00;;;;;14.27;42.28;99906.34;6276465;20;2744050;-48
2024/03/17 11:24:02;;;;;;;;;2.00;2.00;;;;;14.38;42.04;99894.75;6275693;20;2756554;-45
2024/03/17 11:26:37;;;;;;;;;3.00;3.00;;;;;14.78;42.34;99908.00;6281822;20;2738862;-45